sensor_id;sensor_type;location;lat;lon;timestamp;P1;durP1;ratioP1;P2;durP2;ratioP2
22449;SDS011;11392;57.390;-2.468;2024-01-06T00:01:15;8.40;;;5.65;;
22449;SDS011;11392;57.390;-2.468;2024-01-06T00:03:42;4.70;;;4.28;;
22449;SDS011;11392;57.390;-2.468;2024-01-06T00:06:13;7.93;;;5.15;;
22449;SDS011;11392;57.390;-2.468;2024-01-06T00:08:40;7.68;;;4.20;;
22449;SDS011;11392;57.390;-2.468;2024-01-06T00:11:08;6.70;;;3.45;;
22449;SDS011;11392;57.390;-2.468;2024-01-06T00:13:36;6.95;;;3.85;;
22449;SDS011;11392;57.390;-2.468;2024-01-06T00:16:03;6.03;;;3.60;;
22449;SDS011;11392;57.390;-2.468;2024-01-06T00:18:30;5.00;;;3.40;;
22449;SDS011;11392;57.390;-2.468;2024-01-06T00:20:57;7.38;;;4.35;;
22449;SDS011;11392;57.390;-2.468;2024-01-06T00:23:24;6.30;;;4.40;;
22449;SDS011;11392;57.390;-2.468;2024-01-06T00:25:51;5.65;;;3.40;;
22449;SDS011;11392;57.390;-2.468;2024-01-06T00:28:19;5.75;;;4.60;;
22449;SDS011;11392;57.390;-2.468;2024-01-06T00:30:46;4.07;;;3.38;;
22449;SDS011;11392;57.390;-2.468;2024-01-06T00:33:13;8.15;;;5.25;;
22449;SDS011;11392;57.390;-2.468;2024-01-06T00:35:40;6.63;;;4.70;;
22449;SDS011;11392;57.390;-2.468;2024-01-06T00:38:07;8.43;;;5.22;;
22449;SDS011;11392;57.390;-2.468;2024-01-06T00:40:34;8.73;;;5.40;;
22449;SDS011;11392;57.390;-2.468;2024-01-06T00:43:01;4.55;;;3.63;;
22449;SDS011;11392;57.390;-2.468;2024-01-06T00:45:28;9.10;;;4.85;;
22449;SDS011;11392;57.390;-2.468;2024-01-06T00:47:57;6.70;;;4.47;;
22449;SDS011;11392;57.390;-2.468;2024-01-06T00:50:24;8.57;;;4.72;;
22449;SDS011;11392;57.390;-2.468;2024-01-06T00:52:51;7.70;;;5.60;;
22449;SDS011;11392;57.390;-2.468;2024-01-06T00:55:19;4.40;;;3.95;;
22449;SDS011;11392;57.390;-2.468;2024-01-06T00:57:47;6.35;;;5.55;;
22449;SDS011;11392;57.390;-2.468;2024-01-06T01:00:14;5.40;;;4.55;;
22449;SDS011;11392;57.390;-2.468;2024-01-06T01:02:41;6.47;;;4.75;;
22449;SDS011;11392;57.390;-2.468;2024-01-06T01:05:08;7.53;;;4.63;;
22449;SDS011;11392;57.390;-2.468;2024-01-06T01:07:35;4.70;;;4.07;;
22449;SDS011;11392;57.390;-2.468;2024-01-06T01:10:03;5.95;;;5.35;;
22449;SDS011;11392;57.390;-2.468;2024-01-06T01:12:31;7.90;;;5.43;;
22449;SDS011;11392;57.390;-2.468;2024-01-06T01:14:58;9.15;;;5.63;;
22449;SDS011;11392;57.390;-2.468;2024-01-06T01:17:25;6.28;;;5.20;;
22449;SDS011;11392;57.390;-2.468;2024-01-06T01:19:52;7.53;;;5.60;;
22449;SDS011;11392;57.390;-2.468;2024-01-06T01:22:19;6.03;;;4.45;;
22449;SDS011;11392;57.390;-2.468;2024-01-06T01:24:46;6.00;;;4.40;;
22449;SDS011;11392;57.390;-2.468;2024-01-06T01:27:13;7.13;;;5.32;;
22449;SDS011;11392;57.390;-2.468;2024-01-06T01:29:41;6.25;;;4.55;;
22449;SDS011;11392;57.390;-2.468;2024-01-06T01:32:08;6.07;;;3.88;;
22449;SDS011;11392;57.390;-2.468;2024-01-06T01:34:35;5.82;;;4.28;;
22449;SDS011;11392;57.390;-2.468;2024-01-06T01:37:02;6.57;;;4.22;;
22449;SDS011;11392;57.390;-2.468;2024-01-06T01:39:30;3.88;;;3.50;;
22449;SDS011;11392;57.390;-2.468;2024-01-06T01:41:57;4.03;;;3.15;;
22449;SDS011;11392;57.390;-2.468;2024-01-06T01:44:24;4.57;;;3.80;;
22449;SDS011;11392;57.390;-2.468;2024-01-06T01:46:51;5.03;;;3.28;;
22449;SDS011;11392;57.390;-2.468;2024-01-06T01:49:18;5.68;;;3.97;;
22449;SDS011;11392;57.390;-2.468;2024-01-06T01:51:45;5.25;;;4.18;;
22449;SDS011;11392;57.390;-2.468;2024-01-06T01:54:12;7.47;;;5.03;;
22449;SDS011;11392;57.390;-2.468;2024-01-06T01:56:40;7.90;;;5.57;;
22449;SDS011;11392;57.390;-2.468;2024-01-06T01:59:13;5.75;;;4.57;;
22449;SDS011;11392;57.390;-2.468;2024-01-06T02:01:44;7.53;;;4.43;;
22449;SDS011;11392;57.390;-2.468;2024-01-06T02:04:11;7.18;;;4.95;;
22449;SDS011;11392;57.390;-2.468;2024-01-06T02:06:39;7.18;;;5.00;;
22449;SDS011;11392;57.390;-2.468;2024-01-06T02:09:06;5.50;;;3.65;;
22449;SDS011;11392;57.390;-2.468;2024-01-06T02:11:33;5.45;;;3.92;;
22449;SDS011;11392;57.390;-2.468;2024-01-06T02:14:00;5.60;;;3.58;;
22449;SDS011;11392;57.390;-2.468;2024-01-06T02:16:27;3.85;;;3.03;;
22449;SDS011;11392;57.390;-2.468;2024-01-06T02:18:54;4.38;;;3.30;;
22449;SDS011;11392;57.390;-2.468;2024-01-06T02:21:22;5.25;;;3.60;;
22449;SDS011;11392;57.390;-2.468;2024-01-06T02:23:50;4.35;;;3.42;;
22449;SDS011;11392;57.390;-2.468;2024-01-06T02:26:17;6.50;;;3.67;;
22449;SDS011;11392;57.390;-2.468;2024-01-06T02:28:44;3.65;;;2.70;;
22449;SDS011;11392;57.390;-2.468;2024-01-06T02:31:14;5.75;;;3.15;;
22449;SDS011;11392;57.390;-2.468;2024-01-06T02:33:41;3.08;;;2.75;;
22449;SDS011;11392;57.390;-2.468;2024-01-06T02:36:09;4.63;;;3.65;;
22449;SDS011;11392;57.390;-2.468;2024-01-06T02:38:36;6.57;;;2.88;;
22449;SDS011;11392;57.390;-2.468;2024-01-06T02:41:03;2.47;;;2.28;;
22449;SDS011;11392;57.390;-2.468;2024-01-06T02:43:30;4.65;;;3.03;;
22449;SDS011;11392;57.390;-2.468;2024-01-06T02:45:57;6.05;;;3.38;;
22449;SDS011;11392;57.390;-2.468;2024-01-06T02:48:24;2.92;;;2.00;;
22449;SDS011;11392;57.390;-2.468;2024-01-06T02:50:51;4.85;;;2.38;;
22449;SDS011;11392;57.390;-2.468;2024-01-06T02:53:18;2.97;;;2.35;;
22449;SDS011;11392;57.390;-2.468;2024-01-06T02:55:45;5.13;;;3.35;;
22449;SDS011;11392;57.390;-2.468;2024-01-06T02:58:12;4.82;;;2.90;;
22449;SDS011;11392;57.390;-2.468;2024-01-06T03:00:39;4.93;;;3.10;;
22449;SDS011;11392;57.390;-2.468;2024-01-06T03:03:06;3.25;;;2.80;;
22449;SDS011;11392;57.390;-2.468;2024-01-06T03:05:33;5.20;;;2.90;;
22449;SDS011;11392;57.390;-2.468;2024-01-06T03:08:00;3.83;;;2.58;;
22449;SDS011;11392;57.390;-2.468;2024-01-06T03:10:27;6.82;;;3.22;;
22449;SDS011;11392;57.390;-2.468;2024-01-06T03:12:55;2.97;;;2.65;;
22449;SDS011;11392;57.390;-2.468;2024-01-06T03:15:22;3.20;;;2.50;;
22449;SDS011;11392;57.390;-2.468;2024-01-06T03:17:49;4.45;;;2.75;;
22449;SDS011;11392;57.390;-2.468;2024-01-06T03:20:16;5.80;;;3.17;;
22449;SDS011;11392;57.390;-2.468;2024-01-06T03:22:43;4.43;;;2.47;;
22449;SDS011;11392;57.390;-2.468;2024-01-06T03:25:10;4.68;;;2.40;;
22449;SDS011;11392;57.390;-2.468;2024-01-06T03:27:37;3.53;;;2.28;;
22449;SDS011;11392;57.390;-2.468;2024-01-06T03:30:04;4.43;;;3.03;;
22449;SDS011;11392;57.390;-2.468;2024-01-06T03:32:32;3.30;;;2.15;;
22449;SDS011;11392;57.390;-2.468;2024-01-06T03:34:59;4.38;;;2.45;;
22449;SDS011;11392;57.390;-2.468;2024-01-06T03:37:26;2.80;;;2.15;;
22449;SDS011;11392;57.390;-2.468;2024-01-06T03:39:53;4.93;;;2.95;;
22449;SDS011;11392;57.390;-2.468;2024-01-06T03:42:20;2.30;;;1.80;;
22449;SDS011;11392;57.390;-2.468;2024-01-06T03:44:47;3.10;;;2.25;;
22449;SDS011;11392;57.390;-2.468;2024-01-06T03:47:14;2.47;;;1.95;;
22449;SDS011;11392;57.390;-2.468;2024-01-06T03:49:41;5.00;;;2.47;;
22449;SDS011;11392;57.390;-2.468;2024-01-06T03:52:08;1.88;;;1.67;;
22449;SDS011;11392;57.390;-2.468;2024-01-06T03:54:35;3.22;;;1.88;;
22449;SDS011;11392;57.390;-2.468;2024-01-06T03:57:02;4.97;;;2.03;;
22449;SDS011;11392;57.390;-2.468;2024-01-06T03:59:29;1.83;;;1.48;;
22449;SDS011;11392;57.390;-2.468;2024-01-06T04:01:56;4.90;;;1.80;;
22449;SDS011;11392;57.390;-2.468;2024-01-06T04:04:24;1.85;;;1.63;;
22449;SDS011;11392;57.390;-2.468;2024-01-06T04:06:51;2.85;;;1.30;;
22449;SDS011;11392;57.390;-2.468;2024-01-06T04:09:18;2.83;;;1.80;;
22449;SDS011;11392;57.390;-2.468;2024-01-06T04:11:45;3.03;;;1.73;;
22449;SDS011;11392;57.390;-2.468;2024-01-06T04:14:12;4.63;;;2.50;;
22449;SDS011;11392;57.390;-2.468;2024-01-06T04:16:39;3.38;;;2.30;;
22449;SDS011;11392;57.390;-2.468;2024-01-06T04:19:06;5.53;;;2.50;;
22449;SDS011;11392;57.390;-2.468;2024-01-06T04:21:34;3.63;;;1.88;;
22449;SDS011;11392;57.390;-2.468;2024-01-06T04:24:01;2.53;;;1.70;;
22449;SDS011;11392;57.390;-2.468;2024-01-06T04:26:28;1.83;;;1.73;;
22449;SDS011;11392;57.390;-2.468;2024-01-06T04:28:55;4.28;;;2.33;;
22449;SDS011;11392;57.390;-2.468;2024-01-06T04:31:22;2.53;;;1.50;;
22449;SDS011;11392;57.390;-2.468;2024-01-06T04:33:49;3.15;;;1.70;;
22449;SDS011;11392;57.390;-2.468;2024-01-06T04:36:16;2.30;;;1.45;;
22449;SDS011;11392;57.390;-2.468;2024-01-06T04:38:43;2.35;;;1.60;;
22449;SDS011;11392;57.390;-2.468;2024-01-06T04:41:10;3.20;;;1.80;;
22449;SDS011;11392;57.390;-2.468;2024-01-06T04:43:37;2.85;;;1.70;;
22449;SDS011;11392;57.390;-2.468;2024-01-06T04:46:04;2.92;;;2.15;;
22449;SDS011;11392;57.390;-2.468;2024-01-06T04:48:31;3.55;;;2.00;;
22449;SDS011;11392;57.390;-2.468;2024-01-06T04:50:59;3.38;;;2.22;;
22449;SDS011;11392;57.390;-2.468;2024-01-06T04:53:26;4.63;;;2.30;;
22449;SDS011;11392;57.390;-2.468;2024-01-06T04:55:53;3.67;;;2.30;;
22449;SDS011;11392;57.390;-2.468;2024-01-06T04:58:20;1.77;;;1.65;;
22449;SDS011;11392;57.390;-2.468;2024-01-06T05:00:47;5.30;;;1.85;;
22449;SDS011;11392;57.390;-2.468;2024-01-06T05:03:14;2.95;;;1.52;;
22449;SDS011;11392;57.390;-2.468;2024-01-06T05:05:41;3.47;;;1.92;;
22449;SDS011;11392;57.390;-2.468;2024-01-06T05:08:08;5.05;;;2.15;;
22449;SDS011;11392;57.390;-2.468;2024-01-06T05:10:36;3.97;;;1.83;;
22449;SDS011;11392;57.390;-2.468;2024-01-06T05:13:03;2.17;;;1.73;;
22449;SDS011;11392;57.390;-2.468;2024-01-06T05:15:30;3.08;;;1.60;;
22449;SDS011;11392;57.390;-2.468;2024-01-06T05:17:57;2.20;;;1.63;;
22449;SDS011;11392;57.390;-2.468;2024-01-06T05:20:24;1.88;;;1.67;;
22449;SDS011;11392;57.390;-2.468;2024-01-06T05:22:51;3.03;;;1.48;;
22449;SDS011;11392;57.390;-2.468;2024-01-06T05:25:18;3.20;;;1.73;;
22449;SDS011;11392;57.390;-2.468;2024-01-06T05:27:45;6.25;;;2.05;;
22449;SDS011;11392;57.390;-2.468;2024-01-06T05:30:12;4.32;;;1.23;;
22449;SDS011;11392;57.390;-2.468;2024-01-06T05:32:40;3.10;;;1.38;;
22449;SDS011;11392;57.390;-2.468;2024-01-06T05:35:07;1.77;;;1.20;;
22449;SDS011;11392;57.390;-2.468;2024-01-06T05:37:34;3.33;;;1.40;;
22449;SDS011;11392;57.390;-2.468;2024-01-06T05:40:01;4.57;;;1.55;;
22449;SDS011;11392;57.390;-2.468;2024-01-06T05:42:30;5.13;;;1.25;;
22449;SDS011;11392;57.390;-2.468;2024-01-06T05:44:57;3.15;;;1.25;;
22449;SDS011;11392;57.390;-2.468;2024-01-06T05:47:24;2.28;;;1.25;;
22449;SDS011;11392;57.390;-2.468;2024-01-06T05:49:52;2.88;;;1.48;;
22449;SDS011;11392;57.390;-2.468;2024-01-06T05:52:19;2.42;;;1.40;;
22449;SDS011;11392;57.390;-2.468;2024-01-06T05:54:46;2.25;;;0.90;;
22449;SDS011;11392;57.390;-2.468;2024-01-06T05:57:13;3.60;;;1.23;;
22449;SDS011;11392;57.390;-2.468;2024-01-06T05:59:41;2.17;;;1.00;;
22449;SDS011;11392;57.390;-2.468;2024-01-06T06:02:08;3.90;;;1.35;;
22449;SDS011;11392;57.390;-2.468;2024-01-06T06:04:35;3.65;;;1.30;;
22449;SDS011;11392;57.390;-2.468;2024-01-06T06:07:02;1.52;;;1.02;;
22449;SDS011;11392;57.390;-2.468;2024-01-06T06:09:30;2.35;;;0.80;;
22449;SDS011;11392;57.390;-2.468;2024-01-06T06:11:57;1.92;;;1.20;;
22449;SDS011;11392;57.390;-2.468;2024-01-06T06:14:25;4.40;;;1.75;;
22449;SDS011;11392;57.390;-2.468;2024-01-06T06:16:55;1.83;;;0.60;;
22449;SDS011;11392;57.390;-2.468;2024-01-06T06:19:23;3.58;;;1.20;;
22449;SDS011;11392;57.390;-2.468;2024-01-06T06:21:50;3.17;;;0.65;;
22449;SDS011;11392;57.390;-2.468;2024-01-06T06:24:19;0.80;;;0.80;;
22449;SDS011;11392;57.390;-2.468;2024-01-06T06:26:46;0.80;;;0.57;;
22449;SDS011;11392;57.390;-2.468;2024-01-06T06:29:13;2.78;;;0.77;;
22449;SDS011;11392;57.390;-2.468;2024-01-06T06:31:40;2.30;;;0.90;;
22449;SDS011;11392;57.390;-2.468;2024-01-06T06:34:09;1.45;;;0.80;;
22449;SDS011;11392;57.390;-2.468;2024-01-06T06:36:37;3.88;;;0.90;;
22449;SDS011;11392;57.390;-2.468;2024-01-06T06:39:04;1.73;;;0.65;;
22449;SDS011;11392;57.390;-2.468;2024-01-06T06:41:31;2.55;;;0.82;;
22449;SDS011;11392;57.390;-2.468;2024-01-06T06:43:58;3.90;;;0.60;;
22449;SDS011;11392;57.390;-2.468;2024-01-06T06:46:26;1.30;;;0.70;;
22449;SDS011;11392;57.390;-2.468;2024-01-06T06:48:53;3.15;;;0.68;;
22449;SDS011;11392;57.390;-2.468;2024-01-06T06:51:21;5.60;;;1.10;;
22449;SDS011;11392;57.390;-2.468;2024-01-06T06:53:51;3.28;;;0.98;;
22449;SDS011;11392;57.390;-2.468;2024-01-06T06:56:18;1.48;;;0.80;;
22449;SDS011;11392;57.390;-2.468;2024-01-06T06:58:45;3.20;;;0.80;;
22449;SDS011;11392;57.390;-2.468;2024-01-06T07:01:15;1.42;;;0.70;;
22449;SDS011;11392;57.390;-2.468;2024-01-06T07:03:43;0.82;;;0.70;;
22449;SDS011;11392;57.390;-2.468;2024-01-06T07:06:13;2.25;;;0.80;;
22449;SDS011;11392;57.390;-2.468;2024-01-06T07:08:41;1.20;;;0.57;;
22449;SDS011;11392;57.390;-2.468;2024-01-06T07:11:08;1.35;;;0.60;;
22449;SDS011;11392;57.390;-2.468;2024-01-06T07:13:38;3.35;;;1.10;;
22449;SDS011;11392;57.390;-2.468;2024-01-06T07:16:05;1.02;;;0.63;;
22449;SDS011;11392;57.390;-2.468;2024-01-06T07:18:44;1.67;;;0.60;;
22449;SDS011;11392;57.390;-2.468;2024-01-06T07:21:12;3.92;;;1.00;;
22449;SDS011;11392;57.390;-2.468;2024-01-06T07:23:40;2.55;;;0.70;;
22449;SDS011;11392;57.390;-2.468;2024-01-06T07:26:07;4.60;;;0.93;;
22449;SDS011;11392;57.390;-2.468;2024-01-06T07:28:34;5.43;;;0.88;;
22449;SDS011;11392;57.390;-2.468;2024-01-06T07:31:02;4.35;;;0.98;;
22449;SDS011;11392;57.390;-2.468;2024-01-06T07:33:29;1.63;;;1.00;;
22449;SDS011;11392;57.390;-2.468;2024-01-06T07:35:56;4.63;;;0.90;;
22449;SDS011;11392;57.390;-2.468;2024-01-06T07:38:23;2.10;;;1.52;;
22449;SDS011;11392;57.390;-2.468;2024-01-06T07:40:50;3.03;;;0.45;;
22449;SDS011;11392;57.390;-2.468;2024-01-06T07:43:17;1.33;;;1.00;;
22449;SDS011;11392;57.390;-2.468;2024-01-06T07:45:45;2.95;;;1.15;;
22449;SDS011;11392;57.390;-2.468;2024-01-06T07:48:12;4.43;;;1.00;;
22449;SDS011;11392;57.390;-2.468;2024-01-06T07:50:40;5.95;;;1.10;;
22449;SDS011;11392;57.390;-2.468;2024-01-06T07:53:07;5.45;;;1.40;;
22449;SDS011;11392;57.390;-2.468;2024-01-06T07:55:34;3.90;;;1.05;;
22449;SDS011;11392;57.390;-2.468;2024-01-06T07:58:01;3.15;;;0.95;;
22449;SDS011;11392;57.390;-2.468;2024-01-06T08:00:29;5.20;;;0.98;;
22449;SDS011;11392;57.390;-2.468;2024-01-06T08:02:56;3.97;;;0.90;;
22449;SDS011;11392;57.390;-2.468;2024-01-06T08:05:23;2.75;;;0.85;;
22449;SDS011;11392;57.390;-2.468;2024-01-06T08:07:51;2.70;;;1.00;;
22449;SDS011;11392;57.390;-2.468;2024-01-06T08:10:18;1.35;;;0.73;;
22449;SDS011;11392;57.390;-2.468;2024-01-06T08:12:47;2.20;;;0.70;;
22449;SDS011;11392;57.390;-2.468;2024-01-06T08:15:14;1.08;;;0.60;;
22449;SDS011;11392;57.390;-2.468;2024-01-06T08:17:42;1.40;;;0.60;;
22449;SDS011;11392;57.390;-2.468;2024-01-06T08:20:09;4.28;;;0.80;;
22449;SDS011;11392;57.390;-2.468;2024-01-06T08:22:37;0.90;;;0.65;;
22449;SDS011;11392;57.390;-2.468;2024-01-06T08:25:04;1.00;;;0.50;;
22449;SDS011;11392;57.390;-2.468;2024-01-06T08:27:34;0.85;;;0.50;;
22449;SDS011;11392;57.390;-2.468;2024-01-06T08:30:02;3.20;;;0.73;;
22449;SDS011;11392;57.390;-2.468;2024-01-06T08:32:29;2.70;;;0.77;;
22449;SDS011;11392;57.390;-2.468;2024-01-06T08:34:56;3.13;;;0.77;;
22449;SDS011;11392;57.390;-2.468;2024-01-06T08:37:23;6.60;;;1.05;;
22449;SDS011;11392;57.390;-2.468;2024-01-06T08:39:52;2.38;;;1.00;;
22449;SDS011;11392;57.390;-2.468;2024-01-06T08:42:20;3.42;;;0.85;;
22449;SDS011;11392;57.390;-2.468;2024-01-06T08:44:47;4.05;;;0.80;;
22449;SDS011;11392;57.390;-2.468;2024-01-06T08:47:15;3.40;;;0.82;;
22449;SDS011;11392;57.390;-2.468;2024-01-06T08:49:44;3.45;;;0.80;;
22449;SDS011;11392;57.390;-2.468;2024-01-06T08:52:11;4.43;;;0.80;;
22449;SDS011;11392;57.390;-2.468;2024-01-06T08:54:39;2.42;;;0.60;;
22449;SDS011;11392;57.390;-2.468;2024-01-06T08:57:06;2.47;;;0.80;;
22449;SDS011;11392;57.390;-2.468;2024-01-06T08:59:35;1.80;;;0.80;;
22449;SDS011;11392;57.390;-2.468;2024-01-06T09:02:06;1.58;;;0.93;;
22449;SDS011;11392;57.390;-2.468;2024-01-06T09:04:34;4.03;;;0.90;;
22449;SDS011;11392;57.390;-2.468;2024-01-06T09:07:01;3.85;;;0.80;;
22449;SDS011;11392;57.390;-2.468;2024-01-06T09:09:29;1.85;;;0.90;;
22449;SDS011;11392;57.390;-2.468;2024-01-06T09:11:56;2.38;;;0.60;;
22449;SDS011;11392;57.390;-2.468;2024-01-06T09:14:27;2.13;;;0.95;;
22449;SDS011;11392;57.390;-2.468;2024-01-06T09:16:54;4.35;;;1.10;;
22449;SDS011;11392;57.390;-2.468;2024-01-06T09:19:21;8.32;;;1.20;;
22449;SDS011;11392;57.390;-2.468;2024-01-06T09:21:48;4.90;;;0.82;;
22449;SDS011;11392;57.390;-2.468;2024-01-06T09:24:15;4.40;;;1.15;;
22449;SDS011;11392;57.390;-2.468;2024-01-06T09:26:43;2.72;;;1.23;;
22449;SDS011;11392;57.390;-2.468;2024-01-06T09:29:10;1.88;;;0.73;;
22449;SDS011;11392;57.390;-2.468;2024-01-06T09:31:38;6.38;;;0.85;;
22449;SDS011;11392;57.390;-2.468;2024-01-06T09:34:08;2.08;;;1.00;;
22449;SDS011;11392;57.390;-2.468;2024-01-06T09:36:36;2.45;;;0.55;;
22449;SDS011;11392;57.390;-2.468;2024-01-06T09:39:04;3.60;;;0.88;;
22449;SDS011;11392;57.390;-2.468;2024-01-06T09:41:34;6.35;;;1.08;;
22449;SDS011;11392;57.390;-2.468;2024-01-06T09:44:01;3.63;;;0.98;;
22449;SDS011;11392;57.390;-2.468;2024-01-06T09:46:28;2.97;;;1.45;;
22449;SDS011;11392;57.390;-2.468;2024-01-06T09:48:57;1.67;;;0.80;;
22449;SDS011;11392;57.390;-2.468;2024-01-06T09:51:25;3.08;;;1.50;;
22449;SDS011;11392;57.390;-2.468;2024-01-06T09:53:59;5.22;;;1.10;;
22449;SDS011;11392;57.390;-2.468;2024-01-06T09:56:34;7.88;;;1.27;;
22449;SDS011;11392;57.390;-2.468;2024-01-06T09:59:02;2.33;;;0.90;;
22449;SDS011;11392;57.390;-2.468;2024-01-06T10:01:30;1.95;;;0.85;;
22449;SDS011;11392;57.390;-2.468;2024-01-06T10:03:58;3.38;;;0.80;;
22449;SDS011;11392;57.390;-2.468;2024-01-06T10:06:25;2.90;;;1.00;;
22449;SDS011;11392;57.390;-2.468;2024-01-06T10:08:53;4.13;;;0.90;;
22449;SDS011;11392;57.390;-2.468;2024-01-06T10:11:21;2.65;;;0.82;;
22449;SDS011;11392;57.390;-2.468;2024-01-06T10:13:49;3.25;;;0.90;;
22449;SDS011;11392;57.390;-2.468;2024-01-06T10:16:18;6.47;;;2.72;;
22449;SDS011;11392;57.390;-2.468;2024-01-06T10:18:46;2.42;;;1.20;;
22449;SDS011;11392;57.390;-2.468;2024-01-06T10:21:20;2.50;;;1.27;;
22449;SDS011;11392;57.390;-2.468;2024-01-06T10:23:52;6.80;;;1.20;;
22449;SDS011;11392;57.390;-2.468;2024-01-06T10:26:21;2.92;;;1.10;;
22449;SDS011;11392;57.390;-2.468;2024-01-06T10:28:49;2.42;;;0.93;;
22449;SDS011;11392;57.390;-2.468;2024-01-06T10:31:17;3.83;;;1.10;;
22449;SDS011;11392;57.390;-2.468;2024-01-06T10:33:45;3.92;;;1.00;;
22449;SDS011;11392;57.390;-2.468;2024-01-06T10:36:13;2.00;;;0.80;;
22449;SDS011;11392;57.390;-2.468;2024-01-06T10:38:44;5.15;;;1.13;;
22449;SDS011;11392;57.390;-2.468;2024-01-06T10:41:11;3.50;;;0.93;;
22449;SDS011;11392;57.390;-2.468;2024-01-06T10:43:39;2.72;;;0.95;;
22449;SDS011;11392;57.390;-2.468;2024-01-06T10:46:10;3.72;;;1.42;;
22449;SDS011;11392;57.390;-2.468;2024-01-06T10:48:38;4.20;;;0.82;;
22449;SDS011;11392;57.390;-2.468;2024-01-06T10:51:10;3.00;;;1.23;;
22449;SDS011;11392;57.390;-2.468;2024-01-06T10:53:42;3.47;;;1.08;;
22449;SDS011;11392;57.390;-2.468;2024-01-06T10:56:10;3.78;;;1.25;;
22449;SDS011;11392;57.390;-2.468;2024-01-06T10:58:38;6.03;;;1.42;;
22449;SDS011;11392;57.390;-2.468;2024-01-06T11:01:13;2.38;;;0.70;;
22449;SDS011;11392;57.390;-2.468;2024-01-06T11:03:46;2.78;;;0.85;;
22449;SDS011;11392;57.390;-2.468;2024-01-06T11:06:14;3.50;;;1.02;;
22449;SDS011;11392;57.390;-2.468;2024-01-06T11:08:46;4.60;;;1.05;;
22449;SDS011;11392;57.390;-2.468;2024-01-06T11:11:30;3.83;;;1.33;;
22449;SDS011;11392;57.390;-2.468;2024-01-06T11:16:44;2.72;;;0.90;;
22449;SDS011;11392;57.390;-2.468;2024-01-06T11:22:29;5.18;;;0.98;;
22449;SDS011;11392;57.390;-2.468;2024-01-06T11:25:05;3.22;;;0.80;;
22449;SDS011;11392;57.390;-2.468;2024-01-06T11:27:34;6.07;;;1.20;;
22449;SDS011;11392;57.390;-2.468;2024-01-06T11:30:03;2.45;;;1.17;;
22449;SDS011;11392;57.390;-2.468;2024-01-06T11:32:35;4.00;;;1.08;;
22449;SDS011;11392;57.390;-2.468;2024-01-06T11:35:12;4.20;;;1.02;;
22449;SDS011;11392;57.390;-2.468;2024-01-06T11:40:15;3.08;;;0.95;;
22449;SDS011;11392;57.390;-2.468;2024-01-06T11:42:57;2.03;;;1.00;;
22449;SDS011;11392;57.390;-2.468;2024-01-06T11:45:25;4.32;;;1.38;;
22449;SDS011;11392;57.390;-2.468;2024-01-06T11:48:03;4.90;;;0.80;;
22449;SDS011;11392;57.390;-2.468;2024-01-06T11:50:32;5.55;;;1.25;;
22449;SDS011;11392;57.390;-2.468;2024-01-06T11:53:01;2.65;;;0.93;;
22449;SDS011;11392;57.390;-2.468;2024-01-06T11:55:28;2.80;;;0.77;;
22449;SDS011;11392;57.390;-2.468;2024-01-06T11:57:59;3.97;;;1.13;;
22449;SDS011;11392;57.390;-2.468;2024-01-06T12:00:34;6.00;;;1.63;;
22449;SDS011;11392;57.390;-2.468;2024-01-06T12:03:07;5.25;;;1.25;;
22449;SDS011;11392;57.390;-2.468;2024-01-06T12:05:34;3.83;;;1.23;;
22449;SDS011;11392;57.390;-2.468;2024-01-06T12:08:02;3.33;;;1.35;;
22449;SDS011;11392;57.390;-2.468;2024-01-06T12:10:34;4.03;;;0.98;;
22449;SDS011;11392;57.390;-2.468;2024-01-06T12:13:04;2.55;;;1.10;;
22449;SDS011;11392;57.390;-2.468;2024-01-06T12:15:35;5.53;;;1.92;;
22449;SDS011;11392;57.390;-2.468;2024-01-06T12:18:07;4.05;;;0.80;;
22449;SDS011;11392;57.390;-2.468;2024-01-06T12:20:34;3.45;;;1.35;;
22449;SDS011;11392;57.390;-2.468;2024-01-06T12:23:01;5.15;;;1.90;;
22449;SDS011;11392;57.390;-2.468;2024-01-06T12:25:34;2.33;;;0.80;;
22449;SDS011;11392;57.390;-2.468;2024-01-06T12:28:06;3.38;;;0.90;;
22449;SDS011;11392;57.390;-2.468;2024-01-06T12:30:34;2.10;;;1.02;;
22449;SDS011;11392;57.390;-2.468;2024-01-06T12:33:02;3.55;;;0.93;;
22449;SDS011;11392;57.390;-2.468;2024-01-06T12:35:29;3.45;;;1.10;;
22449;SDS011;11392;57.390;-2.468;2024-01-06T12:37:57;1.90;;;1.13;;
22449;SDS011;11392;57.390;-2.468;2024-01-06T12:40:24;4.03;;;1.13;;
22449;SDS011;11392;57.390;-2.468;2024-01-06T12:42:52;3.75;;;1.10;;
22449;SDS011;11392;57.390;-2.468;2024-01-06T12:45:20;4.90;;;1.27;;
22449;SDS011;11392;57.390;-2.468;2024-01-06T12:47:47;3.13;;;0.85;;
22449;SDS011;11392;57.390;-2.468;2024-01-06T12:50:18;2.47;;;1.00;;
22449;SDS011;11392;57.390;-2.468;2024-01-06T12:52:45;2.28;;;0.98;;
22449;SDS011;11392;57.390;-2.468;2024-01-06T12:55:12;1.75;;;0.93;;
22449;SDS011;11392;57.390;-2.468;2024-01-06T12:57:40;3.85;;;1.08;;
22449;SDS011;11392;57.390;-2.468;2024-01-06T13:00:08;5.28;;;1.25;;
22449;SDS011;11392;57.390;-2.468;2024-01-06T13:02:38;4.13;;;1.13;;
22449;SDS011;11392;57.390;-2.468;2024-01-06T13:05:05;3.60;;;1.30;;
22449;SDS011;11392;57.390;-2.468;2024-01-06T13:07:33;1.83;;;0.73;;
22449;SDS011;11392;57.390;-2.468;2024-01-06T13:10:00;2.97;;;1.00;;
22449;SDS011;11392;57.390;-2.468;2024-01-06T13:12:28;3.22;;;0.98;;
22449;SDS011;11392;57.390;-2.468;2024-01-06T13:14:55;4.47;;;1.42;;
22449;SDS011;11392;57.390;-2.468;2024-01-06T13:17:23;3.08;;;1.13;;
22449;SDS011;11392;57.390;-2.468;2024-01-06T13:19:50;3.92;;;1.30;;
22449;SDS011;11392;57.390;-2.468;2024-01-06T13:22:17;6.47;;;1.40;;
22449;SDS011;11392;57.390;-2.468;2024-01-06T13:24:47;1.75;;;0.75;;
22449;SDS011;11392;57.390;-2.468;2024-01-06T13:27:17;3.60;;;1.35;;
22449;SDS011;11392;57.390;-2.468;2024-01-06T13:29:45;6.25;;;1.80;;
22449;SDS011;11392;57.390;-2.468;2024-01-06T13:32:12;4.78;;;1.20;;
22449;SDS011;11392;57.390;-2.468;2024-01-06T13:34:41;2.65;;;0.90;;
22449;SDS011;11392;57.390;-2.468;2024-01-06T13:37:09;6.10;;;1.17;;
22449;SDS011;11392;57.390;-2.468;2024-01-06T13:39:37;2.28;;;0.82;;
22449;SDS011;11392;57.390;-2.468;2024-01-06T13:42:04;4.00;;;1.02;;
22449;SDS011;11392;57.390;-2.468;2024-01-06T13:44:31;2.75;;;0.90;;
22449;SDS011;11392;57.390;-2.468;2024-01-06T13:47:00;3.72;;;1.13;;
22449;SDS011;11392;57.390;-2.468;2024-01-06T13:49:27;1.63;;;0.95;;
22449;SDS011;11392;57.390;-2.468;2024-01-06T13:51:54;3.50;;;1.10;;
22449;SDS011;11392;57.390;-2.468;2024-01-06T13:54:22;3.58;;;1.00;;
22449;SDS011;11392;57.390;-2.468;2024-01-06T13:56:50;5.80;;;1.35;;
22449;SDS011;11392;57.390;-2.468;2024-01-06T13:59:18;4.40;;;1.15;;
22449;SDS011;11392;57.390;-2.468;2024-01-06T14:01:45;2.45;;;0.88;;
22449;SDS011;11392;57.390;-2.468;2024-01-06T14:04:13;4.20;;;1.15;;
22449;SDS011;11392;57.390;-2.468;2024-01-06T14:06:40;1.63;;;0.70;;
22449;SDS011;11392;57.390;-2.468;2024-01-06T14:09:08;3.58;;;1.00;;
22449;SDS011;11392;57.390;-2.468;2024-01-06T14:11:35;5.70;;;1.30;;
22449;SDS011;11392;57.390;-2.468;2024-01-06T14:14:03;1.23;;;0.82;;
22449;SDS011;11392;57.390;-2.468;2024-01-06T14:16:31;3.00;;;0.70;;
22449;SDS011;11392;57.390;-2.468;2024-01-06T14:18:58;4.63;;;0.90;;
22449;SDS011;11392;57.390;-2.468;2024-01-06T14:21:26;2.88;;;0.73;;
22449;SDS011;11392;57.390;-2.468;2024-01-06T14:23:54;3.13;;;1.08;;
22449;SDS011;11392;57.390;-2.468;2024-01-06T14:26:21;3.38;;;1.42;;
22449;SDS011;11392;57.390;-2.468;2024-01-06T14:28:50;4.03;;;0.98;;
22449;SDS011;11392;57.390;-2.468;2024-01-06T14:31:17;1.60;;;0.82;;
22449;SDS011;11392;57.390;-2.468;2024-01-06T14:33:45;2.80;;;0.93;;
22449;SDS011;11392;57.390;-2.468;2024-01-06T14:36:12;3.03;;;1.10;;
22449;SDS011;11392;57.390;-2.468;2024-01-06T14:38:40;2.53;;;0.85;;
22449;SDS011;11392;57.390;-2.468;2024-01-06T14:41:07;2.42;;;0.82;;
22449;SDS011;11392;57.390;-2.468;2024-01-06T14:43:34;5.18;;;1.15;;
22449;SDS011;11392;57.390;-2.468;2024-01-06T14:46:01;3.72;;;1.13;;